Buckfastleigh, United Kingdom
Current Conditions -  °F | °C
As of 3:20 PM on Monday 24 Nov 2014 (Local Time) from EGTE Reporting Station
Clear Clear  
Wind Chill: 43°   Ceiling: Unl
Heat Index: 46°   Visibility: 6mi
Dew Point: 37°   Wind: 7mph
Humidity: 71%   Direction: 40°NE
Pressure: 30.3"   Gusts: NA
Location:  50.48°N, 3.78°W
Report Text: EGTE 241520Z 04006KT CAVOK 08/03 Q1026
Loading
Personal Weather Stations






























Interactive Weather Map New forecast layout! Learn more

10-Day Weather Forecast

Advertisements
Track Severe Weather on mobile